Palito Blanco, Texas
Current Conditions -  °F | °C
As of 4:53 AM on Thursday 27 Nov 2014 (Local Time) from KALI Reporting Station
Clear Clear  
Wind Chill:   Ceiling: Unl
Heat Index:   Visibility: 10mi
Dew Point:   Wind: 3mph
Humidity: 92%   Direction: 360°N
Pressure: 30.33"   Gusts: NA
Location:  27.6821°N, 98.1034°W
Report Text: KALI 271053Z AUTO 36003KT 10SM CLR 06/04 A3033 RMK AO2 SLP270 T00560044 $
Loading
Personal Weather Stations






























Interactive Weather Map New forecast layout! Learn more

10-Day Weather Forecast

Advertisements
Track Severe Weather on mobile